YXTR weather

Taree - Wrigley Park Helipad
Taree, New South Wales, Australia

Public forecast

Using degrees Celsius for public forecast. Weather courtesy of forecast.io.

METAR (pilot weather report)

Closest report is Taree Airport, 3.4 nm (6.3 km) ENE. Retrieved 2019/04/18 14:00 UTC (27 minutes ago):

YTRE 181400Z AUTO 00000KT 8000 // NCD 16/16 Q1026

TAF (pilot weather forecast)

Closest forecast is Taree Airport, 3.4 nm (6.3 km) ENE. Retrieved 2019/04/18 14:33 UTC (0 seconds ago):

TAF YTRE 181301Z 1814/1902 22005KT 9999 -SHRA BKN030 INTER 1817/1902 4000 SHRA BKN015